createdAt,value
2022-09-11T00:01:48.355Z,79.61
2022-09-11T00:04:16.240Z,79.73
2022-09-11T00:06:44.362Z,79.63
2022-09-11T00:09:12.912Z,79.70
2022-09-11T00:11:42.580Z,79.81
2022-09-11T00:14:14.178Z,79.86
2022-09-11T00:16:45.398Z,79.98
2022-09-11T00:19:19.131Z,80.07
2022-09-11T00:21:50.039Z,80.16
2022-09-11T00:24:18.182Z,80.24
2022-09-11T00:26:47.725Z,80.28
2022-09-11T00:29:15.928Z,80.24
2022-09-11T00:31:44.170Z,80.32
2022-09-11T00:34:12.600Z,80.48
2022-09-11T00:36:44.408Z,80.55
2022-09-11T00:39:14.433Z,80.50
2022-09-11T00:41:46.760Z,80.53
2022-09-11T00:44:18.335Z,80.68
2022-09-11T00:46:50.705Z,80.62
2022-09-11T00:49:21.567Z,80.48
2022-09-11T00:52:01.094Z,80.73
2022-09-11T00:54:33.787Z,80.85
2022-09-11T00:57:06.655Z,80.93
2022-09-11T00:59:38.390Z,81.03
2022-09-11T01:02:13.931Z,81.03
2022-09-11T01:04:41.898Z,81.09
2022-09-11T01:07:13.053Z,81.16
2022-09-11T01:09:42.699Z,81.21
2022-09-11T01:12:19.966Z,81.38
2022-09-11T01:15:11.265Z,81.42
2022-09-11T01:18:02.687Z,81.46
2022-09-11T01:21:13.733Z,81.54
2022-09-11T01:24:19.588Z,81.51
2022-09-11T01:27:08.890Z,81.59
2022-09-11T01:29:49.149Z,81.54
2022-09-11T01:32:25.307Z,81.59
2022-09-11T01:35:01.152Z,81.72
2022-09-11T01:37:52.915Z,81.78
2022-09-11T01:40:27.379Z,81.83
2022-09-11T01:43:06.302Z,82.01
2022-09-11T01:45:37.362Z,81.97
2022-09-11T01:48:07.918Z,82.00
2022-09-11T01:50:40.517Z,82.03
2022-09-11T01:53:09.984Z,82.03
2022-09-11T01:55:43.714Z,82.13
2022-09-11T01:58:26.941Z,82.09
2022-09-11T02:01:16.626Z,82.24
2022-09-11T02:03:51.499Z,82.18
2022-09-11T02:06:35.279Z,82.34
2022-09-11T02:09:08.670Z,82.32
2022-09-11T02:11:43.652Z,82.41
2022-09-11T02:14:30.005Z,82.50
2022-09-11T02:16:57.924Z,82.50
2022-09-11T02:19:29.850Z,82.45
2022-09-11T02:21:59.653Z,82.58
2022-09-11T02:24:28.237Z,82.78
2022-09-11T02:27:02.171Z,82.78
2022-09-11T02:29:32.528Z,82.88
2022-09-11T02:32:02.013Z,82.81
2022-09-11T02:34:37.397Z,82.95
2022-09-11T02:37:25.537Z,82.83
2022-09-11T02:40:20.199Z,82.78
2022-09-11T02:43:09.238Z,82.80
2022-09-11T02:45:54.391Z,82.82
2022-09-11T02:48:51.754Z,82.82
2022-09-11T02:51:37.142Z,82.86
2022-09-11T02:54:27.708Z,82.96
2022-09-11T02:57:06.903Z,82.96
2022-09-11T03:00:07.133Z,82.93
2022-09-11T03:02:39.790Z,82.97
2022-09-11T03:05:09.233Z,82.99
2022-09-11T03:07:37.354Z,82.95
2022-09-11T03:10:05.925Z,82.99
2022-09-11T03:12:36.666Z,82.96
2022-09-11T03:15:06.046Z,83.09
2022-09-11T03:17:34.079Z,83.17
2022-09-11T03:20:04.698Z,83.09
2022-09-11T03:22:32.704Z,83.13
2022-09-11T03:25:00.564Z,83.01
2022-09-11T03:27:29.765Z,83.00
2022-09-11T03:29:59.219Z,82.92
2022-09-11T03:32:27.530Z,82.90
2022-09-11T03:34:56.950Z,82.94
2022-09-11T03:37:26.523Z,82.87
2022-09-11T03:39:55.062Z,82.77
2022-09-11T03:42:23.223Z,82.83
2022-09-11T03:44:51.765Z,82.80
2022-09-11T03:47:22.572Z,82.84
2022-09-11T03:49:50.785Z,82.91
2022-09-11T03:52:18.765Z,82.94
2022-09-11T03:54:48.027Z,82.85
2022-09-11T03:57:16.180Z,82.79
2022-09-11T03:59:44.241Z,82.84
2022-09-11T04:02:12.773Z,82.94
2022-09-11T04:04:41.491Z,83.03
2022-09-11T04:07:09.848Z,83.03
2022-09-11T04:09:39.500Z,83.07
2022-09-11T04:12:07.575Z,83.16
2022-09-11T04:14:35.550Z,83.30
2022-09-11T04:17:04.167Z,83.20
2022-09-11T04:19:32.318Z,83.22
2022-09-11T04:22:00.561Z,83.32
2022-09-11T04:24:28.933Z,83.37
2022-09-11T04:27:00.978Z,83.35
2022-09-11T04:29:31.191Z,83.30
2022-09-11T04:32:00.477Z,83.29
2022-09-11T04:34:30.808Z,83.26
2022-09-11T04:36:59.487Z,83.28
2022-09-11T04:39:30.849Z,83.19
2022-09-11T04:41:58.994Z,83.39
2022-09-11T04:44:28.347Z,83.26
2022-09-11T04:46:56.789Z,83.33
2022-09-11T04:49:25.581Z,83.38
2022-09-11T04:51:53.875Z,83.40
2022-09-11T04:54:24.080Z,83.42
2022-09-11T04:56:53.691Z,83.47
2022-09-11T04:59:23.691Z,83.47
2022-09-11T05:02:03.364Z,83.45
2022-09-11T05:04:31.621Z,83.58
2022-09-11T05:07:02.874Z,83.43
2022-09-11T05:09:31.452Z,83.48
2022-09-11T05:11:59.479Z,83.50
2022-09-11T05:14:32.920Z,83.54
2022-09-11T05:17:02.935Z,83.53
2022-09-11T05:19:31.519Z,83.51
2022-09-11T05:22:03.511Z,83.59
2022-09-11T05:24:32.263Z,83.53
2022-09-11T05:27:00.177Z,83.41
2022-09-11T05:29:32.445Z,83.43
2022-09-11T05:32:04.251Z,83.36
2022-09-11T05:34:33.000Z,83.40
2022-09-11T05:37:02.392Z,83.12
2022-09-11T05:39:32.033Z,83.25
2022-09-11T05:42:01.878Z,83.36
2022-09-11T05:44:31.891Z,83.38
2022-09-11T05:47:00.132Z,83.36
2022-09-11T05:49:28.253Z,83.48
2022-09-11T05:51:58.261Z,83.40
2022-09-11T05:54:27.281Z,83.52
2022-09-11T05:56:55.669Z,83.58
2022-09-11T05:59:27.248Z,83.57
2022-09-11T06:01:57.104Z,83.53
2022-09-11T06:04:36.784Z,83.63
2022-09-11T06:07:05.019Z,83.58
2022-09-11T06:09:33.160Z,83.52
2022-09-11T06:12:08.753Z,83.59
2022-09-11T06:14:36.739Z,83.67
2022-09-11T06:17:06.562Z,83.74
2022-09-11T06:19:34.517Z,83.59
2022-09-11T06:22:04.573Z,83.66
2022-09-11T06:24:36.912Z,83.59
2022-09-11T06:27:06.134Z,83.63
2022-09-11T06:29:35.093Z,83.72
2022-09-11T06:32:04.037Z,83.77
2022-09-11T06:34:33.628Z,83.75
2022-09-11T06:37:05.300Z,83.75
2022-09-11T06:39:34.512Z,83.78
2022-09-11T06:42:02.965Z,83.84
2022-09-11T06:44:34.251Z,83.80
2022-09-11T06:47:02.646Z,84.00
2022-09-11T06:49:32.307Z,83.90
2022-09-11T06:52:28.443Z,83.91
2022-09-11T06:55:13.749Z,83.97
2022-09-11T06:57:46.365Z,83.91
2022-09-11T07:00:16.114Z,84.19
2022-09-11T07:02:45.535Z,84.12
2022-09-11T07:05:15.520Z,84.19
2022-09-11T07:07:44.888Z,84.18
2022-09-11T07:10:12.855Z,84.17
2022-09-11T07:12:43.447Z,84.15
2022-09-11T07:15:11.826Z,84.14
2022-09-11T07:17:40.082Z,84.20
2022-09-11T07:20:09.573Z,84.16
2022-09-11T07:22:38.801Z,84.20
2022-09-11T07:25:08.253Z,84.07
2022-09-11T07:27:39.129Z,83.96
2022-09-11T07:30:08.678Z,83.97
2022-09-11T07:32:38.887Z,83.99
2022-09-11T07:35:07.771Z,83.83
2022-09-11T07:37:36.161Z,83.90
2022-09-11T07:40:05.229Z,83.90
2022-09-11T07:42:34.304Z,83.97
2022-09-11T07:45:03.014Z,83.95
2022-09-11T07:47:33.978Z,83.72
2022-09-11T07:50:02.593Z,83.89
2022-09-11T07:52:31.940Z,83.88
2022-09-11T07:55:04.150Z,84.00
2022-09-11T07:57:34.549Z,84.14
2022-09-11T08:00:05.282Z,84.15
2022-09-11T08:02:48.827Z,84.14
2022-09-11T08:05:21.066Z,84.19
2022-09-11T08:07:49.499Z,84.07
2022-09-11T08:10:27.189Z,84.14
2022-09-11T08:12:59.880Z,84.00
2022-09-11T08:15:32.691Z,83.84
2022-09-11T08:18:02.136Z,83.91
2022-09-11T08:20:31.251Z,83.84
2022-09-11T08:22:59.137Z,83.79
2022-09-11T08:25:29.351Z,83.70
2022-09-11T08:27:58.198Z,83.76
2022-09-11T08:30:26.929Z,83.85
2022-09-11T08:32:55.352Z,83.83
2022-09-11T08:35:23.530Z,83.54
2022-09-11T08:37:55.317Z,83.60
2022-09-11T08:40:23.932Z,83.27
2022-09-11T08:42:54.801Z,83.15
2022-09-11T08:45:29.044Z,83.08
2022-09-11T08:47:58.645Z,82.86
2022-09-11T08:50:31.863Z,82.85
2022-09-11T08:53:03.189Z,82.78
2022-09-11T08:55:39.714Z,82.74
2022-09-11T08:58:22.081Z,82.75
2022-09-11T09:01:28.750Z,82.70
2022-09-11T09:04:10.825Z,82.62
2022-09-11T09:07:18.667Z,82.55
2022-09-11T09:10:03.598Z,82.42
2022-09-11T09:13:05.800Z,82.48
2022-09-11T09:15:58.343Z,82.84
2022-09-11T09:18:42.105Z,82.98
2022-09-11T09:21:31.529Z,82.87
2022-09-11T09:24:05.926Z,82.62
2022-09-11T09:26:40.613Z,82.57
2022-09-11T09:29:20.327Z,82.61
2022-09-11T09:31:55.165Z,82.68
2022-09-11T09:34:27.968Z,82.67
2022-09-11T09:37:04.500Z,82.40
2022-09-11T09:39:34.345Z,82.26
2022-09-11T09:42:26.324Z,82.59
2022-09-11T09:45:14.589Z,82.62
2022-09-11T09:47:47.922Z,82.59
2022-09-11T09:50:27.897Z,82.62
2022-09-11T09:53:20.382Z,82.40
2022-09-11T09:55:49.341Z,82.11
2022-09-11T09:58:18.355Z,81.61
2022-09-11T10:00:46.200Z,81.48
2022-09-11T10:03:22.863Z,81.20
2022-09-11T10:05:54.598Z,80.87
2022-09-11T10:08:26.779Z,80.97
2022-09-11T10:10:58.324Z,81.08
2022-09-11T10:13:29.202Z,81.15
2022-09-11T10:16:00.830Z,81.37
2022-09-11T10:18:43.021Z,81.72
2022-09-11T10:21:37.534Z,81.55
2022-09-11T10:24:17.986Z,81.87
2022-09-11T10:26:51.084Z,81.63
2022-09-11T10:29:24.347Z,81.67
2022-09-11T10:31:55.668Z,81.84
2022-09-11T10:34:27.282Z,82.08
2022-09-11T10:36:56.567Z,82.06
2022-09-11T10:39:27.536Z,82.30
2022-09-11T10:42:00.744Z,82.04
2022-09-11T10:44:30.935Z,82.28
2022-09-11T10:47:23.453Z,82.32
2022-09-11T10:50:19.099Z,82.38
2022-09-11T10:52:53.236Z,81.97
2022-09-11T10:55:23.508Z,81.63
2022-09-11T10:57:59.713Z,81.55
2022-09-11T11:00:30.650Z,81.52
2022-09-11T11:03:12.840Z,81.57
2022-09-11T11:05:56.464Z,81.75
2022-09-11T11:08:27.916Z,81.51
2022-09-11T11:11:18.594Z,81.69
2022-09-11T11:14:21.553Z,81.91
2022-09-11T11:17:10.098Z,82.38
2022-09-11T11:20:03.901Z,82.51
2022-09-11T11:23:02.138Z,82.20
2022-09-11T11:26:04.719Z,81.82
2022-09-11T11:29:16.525Z,81.29
2022-09-11T11:32:01.550Z,81.63
2022-09-11T11:35:07.312Z,81.52
2022-09-11T11:37:50.365Z,81.53
2022-09-11T11:40:43.120Z,81.35
2022-09-11T11:43:14.252Z,81.07
2022-09-11T11:45:55.988Z,81.19
2022-09-11T11:48:44.651Z,80.83
2022-09-11T11:51:18.300Z,80.36
2022-09-11T11:54:26.601Z,79.67
2022-09-11T11:57:17.214Z,79.04
2022-09-11T12:00:11.664Z,77.99
2022-09-11T12:02:51.434Z,77.15
2022-09-11T12:05:27.111Z,77.17
2022-09-11T12:07:55.170Z,76.70
2022-09-11T12:10:38.163Z,75.92
2022-09-11T12:13:13.573Z,75.24
2022-09-11T12:16:02.801Z,74.97
2022-09-11T12:18:31.890Z,75.53
2022-09-11T12:21:24.733Z,75.22
2022-09-11T12:24:00.098Z,75.45
2022-09-11T12:26:32.254Z,75.14
2022-09-11T12:29:13.179Z,74.46
2022-09-11T12:31:51.765Z,73.86
2022-09-11T12:34:38.466Z,73.69
2022-09-11T12:37:20.484Z,73.62
2022-09-11T12:40:01.078Z,73.61
2022-09-11T12:42:29.704Z,73.18
2022-09-11T12:44:59.840Z,72.18
2022-09-11T12:47:35.027Z,71.23
2022-09-11T12:50:18.679Z,71.76
2022-09-11T12:52:51.879Z,71.69
2022-09-11T12:55:29.767Z,71.28
2022-09-11T12:58:03.875Z,71.42
2022-09-11T13:00:44.351Z,71.16
2022-09-11T13:03:28.479Z,70.37
2022-09-11T13:06:03.432Z,70.45
2022-09-11T13:08:37.598Z,69.99
2022-09-11T13:11:34.297Z,69.42
2022-09-11T13:14:02.680Z,69.28
2022-09-11T13:16:34.816Z,67.80
2022-09-11T13:19:19.619Z,68.33
2022-09-11T13:21:52.103Z,67.29
2022-09-11T13:24:30.481Z,67.32
2022-09-11T13:27:13.504Z,66.68
2022-09-11T13:29:43.087Z,66.31
2022-09-11T13:32:15.543Z,65.30
2022-09-11T13:34:46.529Z,65.53
2022-09-11T13:37:39.322Z,65.62
2022-09-11T13:40:19.286Z,65.90
2022-09-11T13:42:49.036Z,64.37
2022-09-11T13:45:20.333Z,64.86
2022-09-11T13:47:48.393Z,64.23
2022-09-11T13:50:18.216Z,64.37
2022-09-11T13:52:47.264Z,63.50
2022-09-11T13:55:19.477Z,64.36
2022-09-11T13:58:01.075Z,64.20
2022-09-11T14:00:44.653Z,63.43
2022-09-11T14:03:16.388Z,63.31
2022-09-11T14:06:19.539Z,63.35
2022-09-11T14:08:54.799Z,63.57
2022-09-11T14:11:28.354Z,63.78
2022-09-11T14:14:01.692Z,63.77
2022-09-11T14:16:37.663Z,63.63
2022-09-11T14:19:15.696Z,63.33
2022-09-11T14:21:47.308Z,62.86
2022-09-11T14:24:26.351Z,62.40
2022-09-11T14:26:58.507Z,62.56
2022-09-11T14:29:31.783Z,62.93
2022-09-11T14:32:29.419Z,61.83
2022-09-11T14:34:58.426Z,61.38
2022-09-11T14:37:28.773Z,61.32
2022-09-11T14:40:00.511Z,61.39
2022-09-11T14:42:31.758Z,61.42
2022-09-11T14:45:00.295Z,60.68
2022-09-11T14:47:39.684Z,61.25
2022-09-11T14:50:12.332Z,60.63
2022-09-11T14:52:42.603Z,60.56
2022-09-11T14:55:15.723Z,59.85
2022-09-11T14:57:46.698Z,59.76
2022-09-11T15:00:19.405Z,58.41
2022-09-11T15:02:47.973Z,58.44
2022-09-11T15:05:19.517Z,58.96
2022-09-11T15:07:49.191Z,58.73
2022-09-11T15:10:17.198Z,58.06
2022-09-11T15:12:45.508Z,58.53
2022-09-11T15:15:17.969Z,57.67
2022-09-11T15:17:46.388Z,57.55
2022-09-11T15:20:14.367Z,57.94
2022-09-11T15:22:42.356Z,58.04
2022-09-11T15:25:11.444Z,57.91
2022-09-11T15:27:39.284Z,57.93
2022-09-11T15:30:07.620Z,57.21
2022-09-11T15:32:35.618Z,57.27
2022-09-11T15:35:05.501Z,57.39
2022-09-11T15:37:33.852Z,56.96
2022-09-11T15:40:02.190Z,55.69
2022-09-11T15:42:32.508Z,53.83
2022-09-11T15:45:02.617Z,54.05
2022-09-11T15:47:31.594Z,53.43
2022-09-11T15:50:00.411Z,52.58
2022-09-11T15:52:30.076Z,52.87
2022-09-11T15:54:58.097Z,53.59
2022-09-11T15:57:25.972Z,53.49
2022-09-11T15:59:53.928Z,53.78
2022-09-11T16:02:23.961Z,53.90
2022-09-11T16:04:53.933Z,54.07
2022-09-11T16:07:22.588Z,54.03
2022-09-11T16:09:51.365Z,54.08
2022-09-11T16:12:19.330Z,54.09
2022-09-11T16:14:48.402Z,54.11
2022-09-11T16:17:20.692Z,54.02
2022-09-11T16:19:48.874Z,54.14
2022-09-11T16:22:16.866Z,53.73
2022-09-11T16:24:44.856Z,54.13
2022-09-11T16:27:13.965Z,54.11
2022-09-11T16:30:20.235Z,54.29
2022-09-11T16:32:35.789Z,54.22
2022-09-11T16:35:04.227Z,54.19
2022-09-11T16:37:33.451Z,54.34
2022-09-11T16:40:02.906Z,54.14
2022-09-11T16:42:32.095Z,53.95
2022-09-11T16:44:59.907Z,54.31
2022-09-11T16:47:30.561Z,54.29
2022-09-11T16:50:07.356Z,54.67
2022-09-11T16:52:36.670Z,54.85
2022-09-11T16:55:08.035Z,54.79
2022-09-11T16:57:35.960Z,55.21
2022-09-11T17:00:08.915Z,55.21
2022-09-11T17:02:38.088Z,55.26
2022-09-11T17:05:08.211Z,55.17
2022-09-11T17:07:36.079Z,55.23
2022-09-11T17:10:04.378Z,55.18
2022-09-11T17:12:32.689Z,55.48
2022-09-11T17:15:03.249Z,55.76
2022-09-11T17:17:31.838Z,55.94
2022-09-11T17:19:59.809Z,56.00
2022-09-11T17:22:29.818Z,56.18
2022-09-11T17:24:57.839Z,56.26
2022-09-11T17:27:25.901Z,56.59
2022-09-11T17:29:53.759Z,56.91
2022-09-11T17:32:28.319Z,57.18
2022-09-11T17:34:59.057Z,57.13
2022-09-11T17:37:29.247Z,57.49
2022-09-11T17:39:58.649Z,57.76
2022-09-11T17:42:27.764Z,57.92
2022-09-11T17:44:56.771Z,58.15
2022-09-11T17:47:26.070Z,58.56
2022-09-11T17:49:53.929Z,58.56
2022-09-11T17:52:22.244Z,58.79
2022-09-11T17:54:51.691Z,58.89
2022-09-11T17:57:19.838Z,59.14
2022-09-11T17:59:50.181Z,59.14
2022-09-11T18:02:18.869Z,59.40
2022-09-11T18:04:47.862Z,59.47
2022-09-11T18:07:17.059Z,59.44
2022-09-11T18:09:45.838Z,59.55
2022-09-11T18:12:14.707Z,59.59
2022-09-11T18:14:43.769Z,59.40
2022-09-11T18:17:12.102Z,59.44
2022-09-11T18:19:39.968Z,59.44
2022-09-11T18:22:09.859Z,59.39
2022-09-11T18:24:39.918Z,59.34
2022-09-11T18:27:09.827Z,58.93
2022-09-11T18:29:40.108Z,59.24
2022-09-11T18:32:10.103Z,59.10
2022-09-11T18:34:38.898Z,59.39
2022-09-11T18:37:08.178Z,58.88
2022-09-11T18:39:37.639Z,59.06
2022-09-11T18:42:07.264Z,58.68
2022-09-11T18:44:35.774Z,58.86
2022-09-11T18:47:04.209Z,58.97
2022-09-11T18:49:32.249Z,58.89
2022-09-11T18:52:00.470Z,59.10
2022-09-11T18:54:30.196Z,59.34
2022-09-11T18:57:00.111Z,59.31
2022-09-11T18:59:28.674Z,59.21
2022-09-11T19:01:57.263Z,59.52
2022-09-11T19:04:26.713Z,59.47
2022-09-11T19:06:55.232Z,59.22
2022-09-11T19:09:23.228Z,59.30
2022-09-11T19:11:53.988Z,59.30
2022-09-11T19:14:22.380Z,59.31
2022-09-11T19:16:54.259Z,59.36
2022-09-11T19:19:22.388Z,59.50
2022-09-11T19:21:51.624Z,59.55
2022-09-11T19:24:20.794Z,59.58
2022-09-11T19:26:49.206Z,59.74
2022-09-11T19:29:19.273Z,59.73
2022-09-11T19:31:55.008Z,59.77
2022-09-11T19:34:28.237Z,60.00
2022-09-11T19:36:56.360Z,59.69
2022-09-11T19:39:24.834Z,59.94
2022-09-11T19:41:52.915Z,60.02
2022-09-11T19:44:21.230Z,60.18
2022-09-11T19:46:53.593Z,60.05
2022-09-11T19:49:21.808Z,60.32
2022-09-11T19:51:52.929Z,60.31
2022-09-11T19:54:22.628Z,60.47
2022-09-11T19:56:51.339Z,60.61
2022-09-11T19:59:19.758Z,60.74
2022-09-11T20:01:48.320Z,60.95
2022-09-11T20:04:17.755Z,61.15
2022-09-11T20:09:32.331Z,61.49
2022-09-11T20:12:15.752Z,61.58
2022-09-11T20:14:43.651Z,61.61
2022-09-11T20:17:13.171Z,61.87
2022-09-11T20:19:44.845Z,61.89
2022-09-11T20:22:12.776Z,61.92
2022-09-11T20:24:40.925Z,62.08
2022-09-11T20:27:08.983Z,62.13
2022-09-11T20:29:38.469Z,62.35
2022-09-11T20:32:06.338Z,62.57
2022-09-11T20:34:34.447Z,62.75
2022-09-11T20:37:03.371Z,62.73
2022-09-11T20:39:34.344Z,62.81
2022-09-11T20:42:02.542Z,62.87
2022-09-11T20:44:36.752Z,63.00
2022-09-11T20:47:05.363Z,62.99
2022-09-11T20:49:44.698Z,62.93
2022-09-11T20:52:21.813Z,63.05
2022-09-11T20:54:50.578Z,63.14
2022-09-11T20:57:18.512Z,63.28
2022-09-11T20:59:47.348Z,63.38
2022-09-11T21:02:16.367Z,63.37
2022-09-11T21:04:46.638Z,63.69
2022-09-11T21:07:15.064Z,63.77
2022-09-11T21:09:43.395Z,63.82
2022-09-11T21:12:11.234Z,63.94
2022-09-11T21:14:39.107Z,64.09
2022-09-11T21:17:07.482Z,64.12
2022-09-11T21:19:36.173Z,64.29
2022-09-11T21:22:04.457Z,64.34
2022-09-11T21:24:32.586Z,64.48
2022-09-11T21:27:02.065Z,64.63
2022-09-11T21:29:31.153Z,64.86
2022-09-11T21:32:00.118Z,64.97
2022-09-11T21:34:28.231Z,65.12
2022-09-11T21:36:56.487Z,65.13
2022-09-11T21:39:25.183Z,65.28
2022-09-11T21:42:11.197Z,65.42
2022-09-11T21:44:42.222Z,65.52
2022-09-11T21:47:10.759Z,65.82
2022-09-11T21:49:38.559Z,65.79
2022-09-11T21:52:06.596Z,65.89
2022-09-11T21:54:34.771Z,66.23
2022-09-11T21:57:02.925Z,66.29
2022-09-11T21:59:31.718Z,66.28
2022-09-11T22:01:59.733Z,66.55
2022-09-11T22:04:27.923Z,66.75
2022-09-11T22:06:55.942Z,66.81
2022-09-11T22:09:23.853Z,66.94
2022-09-11T22:11:51.840Z,67.06
2022-09-11T22:14:22.149Z,67.15
2022-09-11T22:16:50.182Z,67.25
2022-09-11T22:19:18.658Z,67.23
2022-09-11T22:21:46.797Z,67.44
2022-09-11T22:24:15.058Z,67.60
2022-09-11T22:26:43.090Z,67.74
2022-09-11T22:29:10.983Z,67.96
2022-09-11T22:31:40.144Z,68.05
2022-09-11T22:34:08.252Z,68.17
2022-09-11T22:36:37.388Z,68.20
2022-09-11T22:39:05.654Z,68.46
2022-09-11T22:41:33.825Z,68.69
2022-09-11T22:44:02.263Z,68.90
2022-09-11T22:46:30.301Z,68.99
2022-09-11T22:48:58.212Z,69.15
2022-09-11T22:51:26.751Z,69.34
2022-09-11T22:53:54.806Z,69.54
2022-09-11T22:56:22.835Z,69.67
2022-09-11T22:58:51.140Z,69.80
2022-09-11T23:01:22.438Z,70.04
2022-09-11T23:03:52.945Z,70.14
2022-09-11T23:06:40.554Z,70.30
2022-09-11T23:09:13.088Z,70.40
2022-09-11T23:11:40.980Z,70.39
2022-09-11T23:14:13.901Z,70.49
2022-09-11T23:16:43.753Z,70.56
2022-09-11T23:19:14.438Z,70.63
2022-09-11T23:21:42.472Z,70.59
2022-09-11T23:24:13.622Z,70.71
2022-09-11T23:26:41.941Z,70.63
2022-09-11T23:29:10.630Z,70.80
2022-09-11T23:31:39.389Z,70.76
2022-09-11T23:34:09.338Z,70.94
2022-09-11T23:36:37.309Z,71.06
2022-09-11T23:39:05.459Z,70.97
2022-09-11T23:41:33.559Z,71.13
2022-09-11T23:44:02.486Z,71.14
2022-09-11T23:46:30.593Z,71.22
2022-09-11T23:48:58.768Z,71.44
2022-09-11T23:51:27.014Z,71.60
2022-09-11T23:53:55.138Z,71.61
2022-09-11T23:56:23.216Z,71.73
2022-09-11T23:58:54.712Z,71.85
